createdAt,value
2019-03-20T00:01:46.653Z,3.20
2019-03-20T00:04:21.993Z,3.10
2019-03-20T00:06:57.643Z,3.10
2019-03-20T00:09:33.007Z,3.10
2019-03-20T00:12:08.945Z,3.10
2019-03-20T00:14:44.286Z,3.00
2019-03-20T00:17:19.966Z,3.00
2019-03-20T00:19:55.147Z,2.90
2019-03-20T00:22:30.162Z,2.90
2019-03-20T00:25:06.595Z,2.80
2019-03-20T00:27:42.693Z,2.80
2019-03-20T00:30:19.217Z,2.80
2019-03-20T00:32:54.544Z,2.70
2019-03-20T00:38:05.063Z,2.60
2019-03-20T00:40:41.069Z,2.60
2019-03-20T00:43:16.094Z,2.60
2019-03-20T00:45:51.216Z,2.60
2019-03-20T00:48:26.248Z,2.60
2019-03-20T00:53:36.658Z,2.60
2019-03-20T00:56:12.939Z,2.60
2019-03-20T00:58:47.972Z,2.60
2019-03-20T01:01:22.982Z,2.60
2019-03-20T01:03:58.344Z,2.60
2019-03-20T01:09:08.648Z,2.50
2019-03-20T01:11:43.678Z,2.50
2019-03-20T01:14:18.701Z,2.50
2019-03-20T01:16:53.838Z,2.50
2019-03-20T01:19:29.286Z,2.50
2019-03-20T01:22:07.061Z,2.40
2019-03-20T01:24:42.086Z,2.40
2019-03-20T01:27:17.110Z,2.40
2019-03-20T01:29:52.119Z,2.30
2019-03-20T01:32:27.150Z,2.30
2019-03-20T01:35:02.465Z,2.30
2019-03-20T01:37:39.549Z,2.30
2019-03-20T01:47:59.455Z,2.20
2019-03-20T01:55:44.491Z,2.10
2019-03-20T01:58:19.499Z,2.10
2019-03-20T02:06:03.892Z,2.10
2019-03-20T02:16:23.338Z,2.00
2019-03-20T02:18:58.368Z,1.90
2019-03-20T02:21:33.702Z,1.90
2019-03-20T02:24:08.734Z,1.90
2019-03-20T02:26:43.755Z,1.90
2019-03-20T02:29:18.788Z,1.90
2019-03-20T02:31:53.875Z,1.90
2019-03-20T02:34:28.903Z,1.90
2019-03-20T02:37:04.121Z,1.80
2019-03-20T02:44:49.290Z,1.70
2019-03-20T02:47:24.314Z,1.60
2019-03-20T02:52:34.135Z,1.60
2019-03-20T02:55:11.643Z,1.60
2019-03-20T02:57:47.071Z,1.60
2019-03-20T03:02:56.790Z,1.60
2019-03-20T03:05:32.072Z,1.70
2019-03-20T03:08:07.413Z,1.60
2019-03-20T03:10:42.788Z,1.70
2019-03-20T03:13:17.902Z,1.70
2019-03-20T03:15:53.459Z,1.70
2019-03-20T03:18:28.463Z,1.60
2019-03-20T03:23:39.078Z,1.60
2019-03-20T03:26:14.099Z,1.60
2019-03-20T03:28:49.444Z,1.60
2019-03-20T03:31:24.930Z,1.60
2019-03-20T03:34:00.427Z,1.60
2019-03-20T03:39:09.972Z,1.50
2019-03-20T03:46:54.504Z,1.40
2019-03-20T03:49:29.540Z,1.40
2019-03-20T03:52:04.850Z,1.40
2019-03-20T03:54:39.864Z,1.40
2019-03-20T03:57:15.331Z,1.40
2019-03-20T04:05:00.599Z,1.20
2019-03-20T04:10:15.737Z,1.20
2019-03-20T04:15:25.709Z,1.20
2019-03-20T04:20:36.679Z,1.20
2019-03-20T04:25:46.225Z,1.30
2019-03-20T04:36:07.588Z,1.10
2019-03-20T05:12:15.913Z,1.20
2019-03-20T05:56:07.149Z,1.80
2019-03-20T06:01:18.560Z,1.90
2019-03-20T06:03:53.605Z,2.10
2019-03-20T06:06:28.623Z,2.20
2019-03-20T06:19:24.501Z,2.60
2019-03-20T06:27:09.439Z,2.70
2019-03-20T07:32:33.176Z,17.60
2019-03-20T07:35:09.176Z,17.80
2019-03-20T07:37:55.324Z,18.10
2019-03-20T07:53:34.075Z,19.50
2019-03-20T07:56:10.051Z,19.70
2019-03-20T07:58:51.621Z,19.50
2019-03-20T08:22:34.089Z,21.10
2019-03-20T08:25:15.868Z,21.10
2019-03-20T08:27:53.953Z,20.40
2019-03-20T08:33:06.646Z,20.80
2019-03-20T08:46:12.450Z,21.20
2019-03-20T09:04:28.131Z,22.60
2019-03-20T09:07:14.084Z,22.50
2019-03-20T09:25:43.523Z,22.10
2019-03-20T09:30:54.334Z,22.20
2019-03-20T09:33:34.485Z,22.00
2019-03-20T09:36:09.830Z,22.30
2019-03-20T09:49:13.564Z,23.10
2019-03-20T09:52:04.337Z,23.00
2019-03-20T09:54:47.426Z,22.60
2019-03-20T09:57:24.422Z,22.70
2019-03-20T10:02:38.946Z,23.20
2019-03-20T10:05:21.348Z,23.20
2019-03-20T10:08:08.243Z,22.90
2019-03-20T10:10:48.126Z,23.70
2019-03-20T10:21:54.776Z,24.10
2019-03-20T10:24:30.275Z,23.40
2019-03-20T10:27:18.325Z,22.70
2019-03-20T10:38:04.809Z,23.70
2019-03-20T10:40:52.137Z,24.10
2019-03-20T10:46:21.385Z,24.50
2019-03-20T10:49:13.563Z,24.00
2019-03-20T11:04:29.677Z,25.30
2019-03-20T11:07:07.410Z,26.20
2019-03-20T11:12:58.753Z,25.70
2019-03-20T11:21:35.203Z,25.20
2019-03-20T11:24:18.135Z,24.40
2019-03-20T11:27:02.423Z,23.00
2019-03-20T11:34:52.429Z,23.20
2019-03-20T11:40:23.280Z,23.00
2019-03-20T11:45:42.288Z,21.80
2019-03-20T11:48:33.306Z,20.30
2019-03-20T11:53:49.476Z,18.90
2019-03-20T11:56:27.808Z,18.60
2019-03-20T11:59:03.303Z,18.70
2019-03-20T12:01:44.291Z,19.20
2019-03-20T12:04:22.259Z,18.70
2019-03-20T12:06:57.956Z,18.30
2019-03-20T12:09:40.961Z,17.90
2019-03-20T12:12:13.510Z,17.50
2019-03-20T12:14:49.008Z,16.90
2019-03-20T12:17:25.002Z,17.00
2019-03-20T12:20:02.338Z,17.30
2019-03-20T12:22:39.575Z,17.60
2019-03-20T12:25:20.748Z,18.20
2019-03-20T12:27:56.979Z,18.90
2019-03-20T12:30:34.773Z,19.30
2019-03-20T12:33:12.267Z,20.00
2019-03-20T12:35:49.456Z,20.60
2019-03-20T12:38:26.261Z,21.20
2019-03-20T12:41:07.533Z,21.60
2019-03-20T12:43:46.494Z,22.00
2019-03-20T12:46:40.881Z,21.80
2019-03-20T12:49:10.897Z,21.70
2019-03-20T12:51:55.504Z,21.80
2019-03-20T12:54:38.123Z,21.90
2019-03-20T12:57:15.178Z,22.00
2019-03-20T12:59:50.215Z,22.00
2019-03-20T13:18:03.950Z,20.60
2019-03-20T13:26:00.856Z,19.20
2019-03-20T13:31:23.254Z,17.20
2019-03-20T13:33:59.925Z,16.70
2019-03-20T13:36:35.845Z,16.60
2019-03-20T13:39:11.200Z,16.60
2019-03-20T13:41:48.215Z,16.30
2019-03-20T13:44:24.246Z,16.20
2019-03-20T13:47:01.370Z,17.00
2019-03-20T13:49:36.440Z,18.40
2019-03-20T13:52:14.419Z,20.00
2019-03-20T13:54:49.861Z,20.90
2019-03-20T13:57:25.309Z,21.00
2019-03-20T14:00:00.390Z,21.20
2019-03-20T14:02:35.489Z,21.80
2019-03-20T14:05:17.967Z,22.50
2019-03-20T14:07:55.957Z,22.90
2019-03-20T14:10:34.211Z,22.90
2019-03-20T14:13:24.225Z,23.10
2019-03-20T14:18:35.867Z,22.70
2019-03-20T14:21:10.925Z,21.50
2019-03-20T14:23:48.220Z,20.80
2019-03-20T14:29:05.390Z,20.60
2019-03-20T14:31:59.634Z,19.50
2019-03-20T14:34:41.698Z,18.80
2019-03-20T14:37:17.620Z,18.30
2019-03-20T14:39:53.878Z,17.80
2019-03-20T14:42:32.268Z,17.90
2019-03-20T14:47:46.590Z,18.20
2019-03-20T14:50:36.573Z,17.80
2019-03-20T14:53:15.626Z,18.30
2019-03-20T14:55:51.388Z,18.40
2019-03-20T14:58:28.402Z,18.60
2019-03-20T15:01:04.846Z,19.10
2019-03-20T15:03:40.886Z,19.60
2019-03-20T15:06:15.927Z,19.80
2019-03-20T15:08:50.985Z,19.30
2019-03-20T15:11:29.205Z,18.30
2019-03-20T15:14:04.233Z,17.30
2019-03-20T15:16:40.998Z,16.80
2019-03-20T15:19:16.108Z,16.30
2019-03-20T15:21:55.774Z,15.80
2019-03-20T15:24:31.994Z,15.40
2019-03-20T15:27:08.094Z,15.10
2019-03-20T15:29:43.650Z,14.80
2019-03-20T15:32:19.599Z,14.70
2019-03-20T15:34:54.632Z,14.60
2019-03-20T15:37:29.762Z,14.50
2019-03-20T15:40:08.364Z,14.40
2019-03-20T15:42:43.496Z,14.30
2019-03-20T15:45:20.195Z,14.20
2019-03-20T15:47:55.230Z,14.10
2019-03-20T15:50:30.447Z,13.90
2019-03-20T15:53:05.823Z,13.80
2019-03-20T15:55:42.023Z,13.80
2019-03-20T15:58:18.035Z,13.60
2019-03-20T16:00:53.457Z,13.60
2019-03-20T16:03:33.563Z,13.50
2019-03-20T16:06:08.642Z,13.50
2019-03-20T16:08:43.778Z,13.40
2019-03-20T16:11:19.454Z,13.30
2019-03-20T16:13:54.477Z,13.30
2019-03-20T16:16:33.049Z,13.30
2019-03-20T16:19:08.814Z,13.20
2019-03-20T16:21:44.042Z,13.20
2019-03-20T16:24:19.107Z,13.20
2019-03-20T16:26:55.415Z,13.20
2019-03-20T16:29:31.092Z,13.20
2019-03-20T16:32:07.183Z,13.20
2019-03-20T16:34:42.242Z,13.10
2019-03-20T16:37:18.487Z,13.20
2019-03-20T16:39:54.542Z,13.10
2019-03-20T16:42:29.821Z,13.10
2019-03-20T16:45:08.454Z,13.10
2019-03-20T16:47:43.489Z,13.00
2019-03-20T16:50:20.762Z,13.00
2019-03-20T16:52:55.952Z,13.00
2019-03-20T16:55:32.076Z,12.90
2019-03-20T16:58:08.085Z,12.80
2019-03-20T17:00:44.027Z,12.80
2019-03-20T17:03:20.384Z,12.70
2019-03-20T17:05:55.891Z,12.70
2019-03-20T17:08:34.182Z,12.70
2019-03-20T17:11:10.590Z,12.70
2019-03-20T17:13:45.633Z,12.50
2019-03-20T17:16:21.962Z,12.50
2019-03-20T17:18:56.999Z,12.50
2019-03-20T17:21:35.157Z,12.40
2019-03-20T17:24:10.690Z,12.40
2019-03-20T17:26:46.716Z,12.40
2019-03-20T17:29:22.878Z,12.20
2019-03-20T17:31:59.204Z,12.30
2019-03-20T17:34:34.234Z,12.30
2019-03-20T17:37:09.635Z,12.20
2019-03-20T17:39:45.062Z,12.20
2019-03-20T17:42:20.098Z,12.20
2019-03-20T17:44:55.123Z,12.20
2019-03-20T17:47:30.242Z,12.20
2019-03-20T17:50:09.893Z,12.20
2019-03-20T17:52:45.870Z,12.10
2019-03-20T17:55:22.244Z,12.10
2019-03-20T17:57:59.532Z,12.10
2019-03-20T18:00:44.096Z,12.10
2019-03-20T18:03:19.448Z,12.10
2019-03-20T18:05:55.459Z,12.00
2019-03-20T18:08:31.742Z,12.00
2019-03-20T18:11:09.042Z,12.10
2019-03-20T18:13:44.897Z,12.10
2019-03-20T18:16:20.234Z,12.00
2019-03-20T18:18:55.575Z,11.90
2019-03-20T18:21:30.629Z,12.00
2019-03-20T18:24:05.710Z,12.00
2019-03-20T18:26:41.098Z,12.00
2019-03-20T18:29:17.037Z,11.90
2019-03-20T18:31:53.517Z,12.00
2019-03-20T18:34:29.785Z,12.00
2019-03-20T18:37:05.441Z,11.90
2019-03-20T18:39:40.489Z,11.90
2019-03-20T18:42:15.555Z,11.90
2019-03-20T18:44:50.669Z,11.90
2019-03-20T18:47:26.082Z,11.90
2019-03-20T18:50:01.434Z,11.80
2019-03-20T18:52:38.821Z,11.80
2019-03-20T18:55:16.157Z,11.80
2019-03-20T18:57:51.190Z,11.80
2019-03-20T19:00:34.127Z,11.70
2019-03-20T19:03:15.330Z,11.70
2019-03-20T19:05:56.526Z,11.60
2019-03-20T19:08:31.655Z,11.60
2019-03-20T19:11:07.418Z,11.60
2019-03-20T19:13:42.871Z,11.50
2019-03-20T19:16:17.955Z,11.50
2019-03-20T19:18:53.334Z,11.40
2019-03-20T19:21:28.384Z,11.40
2019-03-20T19:24:05.467Z,11.40
2019-03-20T19:26:42.513Z,11.40
2019-03-20T19:29:20.934Z,11.30
2019-03-20T19:31:58.249Z,11.30
2019-03-20T19:34:33.606Z,11.30
2019-03-20T19:37:08.645Z,11.30
2019-03-20T19:39:44.047Z,11.30
2019-03-20T19:42:20.108Z,11.30
2019-03-20T19:44:55.518Z,11.20
2019-03-20T19:47:30.815Z,11.30
2019-03-20T19:50:22.549Z,11.30
2019-03-20T19:52:57.584Z,11.30
2019-03-20T19:55:32.625Z,11.30
2019-03-20T19:58:08.061Z,11.30
2019-03-20T20:00:43.414Z,11.40
2019-03-20T20:03:19.045Z,11.30
2019-03-20T20:05:54.489Z,11.30
2019-03-20T20:08:29.842Z,11.30
2019-03-20T20:11:04.873Z,11.40
2019-03-20T20:13:41.271Z,11.40
2019-03-20T20:16:16.365Z,11.30
2019-03-20T20:18:51.718Z,11.30
2019-03-20T20:21:28.691Z,11.30
2019-03-20T20:24:03.723Z,11.30
2019-03-20T20:26:38.779Z,11.20
2019-03-20T20:29:13.810Z,11.30
2019-03-20T20:31:50.167Z,11.30
2019-03-20T20:34:26.262Z,11.30
2019-03-20T20:37:01.675Z,11.40
2019-03-20T20:39:36.894Z,11.30
2019-03-20T20:42:13.891Z,11.30
2019-03-20T20:44:48.927Z,11.30
2019-03-20T20:47:24.988Z,11.30
2019-03-20T20:50:00.017Z,11.30
2019-03-20T20:52:35.973Z,11.20
2019-03-20T20:55:14.730Z,11.30
2019-03-20T20:57:50.765Z,11.30
2019-03-20T21:00:27.186Z,11.20
2019-03-20T21:03:02.229Z,11.20
2019-03-20T21:05:37.258Z,11.20
2019-03-20T21:08:12.659Z,11.20
2019-03-20T21:10:47.704Z,11.20
2019-03-20T21:13:23.017Z,11.20
2019-03-20T21:15:58.077Z,11.10
2019-03-20T21:18:49.019Z,11.10
2019-03-20T21:21:25.206Z,11.10
2019-03-20T21:24:23.102Z,11.00
2019-03-20T21:27:04.982Z,11.10
2019-03-20T21:30:03.601Z,11.00
2019-03-20T21:32:47.312Z,11.00
2019-03-20T21:35:53.233Z,11.00
2019-03-20T21:38:29.869Z,11.00
2019-03-20T21:41:15.030Z,11.00
2019-03-20T21:43:55.919Z,11.00
2019-03-20T21:46:55.091Z,10.90
2019-03-20T21:49:30.766Z,11.00
2019-03-20T21:52:05.810Z,10.90
2019-03-20T21:55:11.841Z,10.90
2019-03-20T21:57:52.107Z,10.90
2019-03-20T22:01:05.315Z,10.90
2019-03-20T22:03:43.676Z,10.80
2019-03-20T22:06:58.730Z,10.70
2019-03-20T22:09:53.413Z,10.70
2019-03-20T22:12:35.249Z,10.70
2019-03-20T22:15:14.047Z,10.70
2019-03-20T22:18:06.383Z,10.70
2019-03-20T22:20:47.981Z,10.70
2019-03-20T22:23:40.600Z,10.60
2019-03-20T22:26:39.311Z,10.50
2019-03-20T22:29:21.236Z,10.60
2019-03-20T22:32:31.929Z,10.60
2019-03-20T22:35:27.693Z,10.50
2019-03-20T22:38:05.360Z,10.60
2019-03-20T22:41:21.696Z,10.50
2019-03-20T22:43:59.698Z,10.50
2019-03-20T22:46:50.813Z,10.40
2019-03-20T22:49:48.073Z,10.40
2019-03-20T22:52:35.799Z,10.30
2019-03-20T22:55:26.915Z,10.30
2019-03-20T22:58:27.755Z,10.20
2019-03-20T23:01:02.799Z,10.20
2019-03-20T23:03:41.212Z,10.20
2019-03-20T23:06:17.261Z,10.20
2019-03-20T23:08:52.294Z,10.10
2019-03-20T23:11:27.744Z,10.10
2019-03-20T23:14:02.768Z,10.10
2019-03-20T23:16:38.117Z,10.00
2019-03-20T23:19:13.245Z,10.00
2019-03-20T23:21:48.701Z,10.00
2019-03-20T23:24:23.816Z,10.00
2019-03-20T23:27:01.079Z,10.00
2019-03-20T23:29:36.566Z,10.00
2019-03-20T23:32:12.890Z,10.00
2019-03-20T23:34:48.839Z,10.00
2019-03-20T23:37:23.855Z,10.00
2019-03-20T23:39:58.925Z,10.00
2019-03-20T23:42:33.940Z,10.00
2019-03-20T23:45:15.661Z,10.00
2019-03-20T23:47:56.567Z,10.00
2019-03-20T23:50:31.601Z,10.00
2019-03-20T23:53:06.662Z,10.00
2019-03-20T23:55:41.758Z,9.90
2019-03-20T23:58:17.518Z,10.00
